sensor_id;sensor_type;location;lat;lon;timestamp;pressure;altitude;pressure_sealevel;temperature;humidity
35248;BME280;21380;52.194;20.520;2022-09-09T00:02:08;100211.00;;;21.80;52.87
35248;BME280;21380;52.194;20.520;2022-09-09T00:04:39;100225.84;;;21.83;52.70
35248;BME280;21380;52.194;20.520;2022-09-09T00:07:28;100208.34;;;21.82;52.98
35248;BME280;21380;52.194;20.520;2022-09-09T00:13:18;100211.03;;;21.76;53.16
35248;BME280;21380;52.194;20.520;2022-09-09T00:18:24;100226.78;;;21.77;52.94
35248;BME280;21380;52.194;20.520;2022-09-09T00:23:32;100220.66;;;21.77;53.23
35248;BME280;21380;52.194;20.520;2022-09-09T00:28:30;100238.16;;;21.78;52.97
35248;BME280;21380;52.194;20.520;2022-09-09T00:31:13;100226.78;;;21.77;52.89
35248;BME280;21380;52.194;20.520;2022-09-09T00:33:40;100224.16;;;21.74;52.95
35248;BME280;21380;52.194;20.520;2022-09-09T00:36:17;100222.47;;;21.70;53.05
35248;BME280;21380;52.194;20.520;2022-09-09T00:38:52;100238.16;;;21.76;53.18
35248;BME280;21380;52.194;20.520;2022-09-09T00:41:51;100240.78;;;21.76;53.30
35248;BME280;21380;52.194;20.520;2022-09-09T00:44:30;100221.66;;;21.62;53.37
35248;BME280;21380;52.194;20.520;2022-09-09T00:47:29;100232.09;;;21.71;53.23
35248;BME280;21380;52.194;20.520;2022-09-09T00:55:25;100229.47;;;21.71;53.16
35248;BME280;21380;52.194;20.520;2022-09-09T00:57:52;100216.34;;;21.68;53.34
35248;BME280;21380;52.194;20.520;2022-09-09T01:00:27;100215.44;;;21.70;53.24
35248;BME280;21380;52.194;20.520;2022-09-09T01:08:42;100212.84;;;21.69;53.65
35248;BME280;21380;52.194;20.520;2022-09-09T01:14:03;100208.53;;;21.62;53.54
35248;BME280;21380;52.194;20.520;2022-09-09T01:16:29;100204.13;;;21.65;53.73
35248;BME280;21380;52.194;20.520;2022-09-09T01:18:58;100201.53;;;21.61;53.60
35248;BME280;21380;52.194;20.520;2022-09-09T01:21:50;100226.00;;;21.66;53.79
35248;BME280;21380;52.194;20.520;2022-09-09T01:24:20;100215.50;;;21.66;53.71
35248;BME280;21380;52.194;20.520;2022-09-09T01:26:52;100216.38;;;21.65;53.71
35248;BME280;21380;52.194;20.520;2022-09-09T01:29:21;100219.88;;;21.65;53.85
35248;BME280;21380;52.194;20.520;2022-09-09T01:34:20;100209.44;;;21.58;53.75
35248;BME280;21380;52.194;20.520;2022-09-09T01:36:52;100211.19;;;21.59;53.80
35248;BME280;21380;52.194;20.520;2022-09-09T01:39:20;100216.38;;;21.63;53.94
35248;BME280;21380;52.194;20.520;2022-09-09T01:41:46;100206.78;;;21.62;53.92
35248;BME280;21380;52.194;20.520;2022-09-09T01:44:12;100219.91;;;21.62;53.97
35248;BME280;21380;52.194;20.520;2022-09-09T01:46:38;100219.06;;;21.59;53.85
35248;BME280;21380;52.194;20.520;2022-09-09T01:49:06;100219.03;;;21.62;54.08
35248;BME280;21380;52.194;20.520;2022-09-09T01:51:34;100211.16;;;21.60;54.05
35248;BME280;21380;52.194;20.520;2022-09-09T01:54:01;100216.41;;;21.62;54.03
35248;BME280;21380;52.194;20.520;2022-09-09T02:02:21;100213.81;;;21.59;54.08
35248;BME280;21380;52.194;20.520;2022-09-09T02:04:57;100212.03;;;21.54;54.09
35248;BME280;21380;52.194;20.520;2022-09-09T02:07:47;100219.94;;;21.58;54.22
35248;BME280;21380;52.194;20.520;2022-09-09T02:10:20;100214.69;;;21.58;54.32
35248;BME280;21380;52.194;20.520;2022-09-09T02:12:52;100202.44;;;21.55;54.20
35248;BME280;21380;52.194;20.520;2022-09-09T02:15:28;100211.22;;;21.57;54.09
35248;BME280;21380;52.194;20.520;2022-09-09T02:17:58;100214.72;;;21.56;54.17
35248;BME280;21380;52.194;20.520;2022-09-09T02:20:25;100204.25;;;21.48;54.27
35248;BME280;21380;52.194;20.520;2022-09-09T02:22:53;100210.31;;;21.53;54.36
35248;BME280;21380;52.194;20.520;2022-09-09T02:25:23;100209.41;;;21.54;54.39
35248;BME280;21380;52.194;20.520;2022-09-09T02:27:51;100209.41;;;21.54;54.47
35248;BME280;21380;52.194;20.520;2022-09-09T02:30:18;100200.69;;;21.54;54.34
35248;BME280;21380;52.194;20.520;2022-09-09T02:32:47;100198.94;;;21.53;54.62
35248;BME280;21380;52.194;20.520;2022-09-09T02:35:18;100201.56;;;21.53;54.50
35248;BME280;21380;52.194;20.520;2022-09-09T02:37:46;100209.47;;;21.50;54.44
35248;BME280;21380;52.194;20.520;2022-09-09T02:40:13;100211.19;;;21.52;54.48
35248;BME280;21380;52.194;20.520;2022-09-09T02:42:43;100206.84;;;21.51;54.38
35248;BME280;21380;52.194;20.520;2022-09-09T02:45:10;100207.72;;;21.50;54.46
35248;BME280;21380;52.194;20.520;2022-09-09T02:48:03;100217.34;;;21.51;54.56
35248;BME280;21380;52.194;20.520;2022-09-09T02:51:00;100214.72;;;21.51;54.78
35248;BME280;21380;52.194;20.520;2022-09-09T02:56:17;100218.22;;;21.49;54.73
35248;BME280;21380;52.194;20.520;2022-09-09T02:58:45;100207.72;;;21.49;54.70
35248;BME280;21380;52.194;20.520;2022-09-09T03:01:12;100212.13;;;21.48;54.70
35248;BME280;21380;52.194;20.520;2022-09-09T03:07:31;100226.13;;;21.47;54.89
35248;BME280;21380;52.194;20.520;2022-09-09T03:09:57;100218.22;;;21.46;54.69
35248;BME280;21380;52.194;20.520;2022-09-09T03:12:23;100230.47;;;21.47;54.72
35248;BME280;21380;52.194;20.520;2022-09-09T03:14:49;100226.09;;;21.46;54.69
35248;BME280;21380;52.194;20.520;2022-09-09T03:17:15;100227.88;;;21.45;54.74
35248;BME280;21380;52.194;20.520;2022-09-09T03:19:42;100227.91;;;21.44;54.85
35248;BME280;21380;52.194;20.520;2022-09-09T03:22:10;100224.41;;;21.42;54.85
35248;BME280;21380;52.194;20.520;2022-09-09T03:24:36;100234.88;;;21.45;54.85
35248;BME280;21380;52.194;20.520;2022-09-09T03:27:02;100231.38;;;21.44;54.88
35248;BME280;21380;52.194;20.520;2022-09-09T03:29:28;100233.13;;;21.44;55.03
35248;BME280;21380;52.194;20.520;2022-09-09T03:31:54;100228.75;;;21.44;55.00
35248;BME280;21380;52.194;20.520;2022-09-09T03:34:20;100213.94;;;21.37;54.90
35248;BME280;21380;52.194;20.520;2022-09-09T03:36:46;100228.75;;;21.44;55.14
35248;BME280;21380;52.194;20.520;2022-09-09T03:39:14;100218.28;;;21.43;55.22
35248;BME280;21380;52.194;20.520;2022-09-09T03:41:41;100212.16;;;21.42;55.47
35248;BME280;21380;52.194;20.520;2022-09-09T03:44:06;100213.06;;;21.36;55.48
35248;BME280;21380;52.194;20.520;2022-09-09T03:46:32;100220.91;;;21.41;55.70
35248;BME280;21380;52.194;20.520;2022-09-09T03:48:59;100215.72;;;21.35;55.63
35248;BME280;21380;52.194;20.520;2022-09-09T03:51:25;100223.53;;;21.38;55.68
35248;BME280;21380;52.194;20.520;2022-09-09T03:53:51;100224.41;;;21.40;55.80
35248;BME280;21380;52.194;20.520;2022-09-09T03:56:17;100221.81;;;21.38;55.63
35248;BME280;21380;52.194;20.520;2022-09-09T03:58:43;100219.22;;;21.34;55.71
35248;BME280;21380;52.194;20.520;2022-09-09T04:01:12;100228.78;;;21.38;55.63
35248;BME280;21380;52.194;20.520;2022-09-09T04:03:43;100231.44;;;21.36;55.86
35248;BME280;21380;52.194;20.520;2022-09-09T04:06:11;100222.69;;;21.37;55.64
35248;BME280;21380;52.194;20.520;2022-09-09T04:08:39;100213.09;;;21.32;55.90
35248;BME280;21380;52.194;20.520;2022-09-09T04:11:06;100229.69;;;21.35;55.97
35248;BME280;21380;52.194;20.520;2022-09-09T04:13:33;100226.22;;;21.32;56.14
35248;BME280;21380;52.194;20.520;2022-09-09T04:16:00;100230.56;;;21.36;56.04
35248;BME280;21380;52.194;20.520;2022-09-09T04:18:27;100227.97;;;21.33;56.26
35248;BME280;21380;52.194;20.520;2022-09-09T04:20:57;100226.22;;;21.35;56.18
35248;BME280;21380;52.194;20.520;2022-09-09T04:23:24;100237.56;;;21.34;56.21
35248;BME280;21380;52.194;20.520;2022-09-09T04:25:52;100235.81;;;21.34;56.15
35248;BME280;21380;52.194;20.520;2022-09-09T04:28:20;100222.72;;;21.28;56.05
35248;BME280;21380;52.194;20.520;2022-09-09T04:30:51;100222.72;;;21.28;56.05
35248;BME280;21380;52.194;20.520;2022-09-09T04:33:18;100216.66;;;21.25;55.91
35248;BME280;21380;52.194;20.520;2022-09-09T04:35:46;100235.81;;;21.34;55.83
35248;BME280;21380;52.194;20.520;2022-09-09T04:38:13;100241.94;;;21.35;55.82
35248;BME280;21380;52.194;20.520;2022-09-09T04:40:39;100235.81;;;21.34;56.02
35248;BME280;21380;52.194;20.520;2022-09-09T04:43:09;100234.94;;;21.34;56.14
35248;BME280;21380;52.194;20.520;2022-09-09T04:45:35;100239.31;;;21.35;56.04
35248;BME280;21380;52.194;20.520;2022-09-09T04:48:01;100239.34;;;21.33;56.10
35248;BME280;21380;52.194;20.520;2022-09-09T04:50:28;100235.84;;;21.31;56.20
35248;BME280;21380;52.194;20.520;2022-09-09T04:52:54;100239.34;;;21.33;56.17
35248;BME280;21380;52.194;20.520;2022-09-09T04:55:19;100255.09;;;21.33;56.20
35248;BME280;21380;52.194;20.520;2022-09-09T04:57:45;100222.78;;;21.20;56.28
35248;BME280;21380;52.194;20.520;2022-09-09T05:00:12;100245.47;;;21.31;56.25
35248;BME280;21380;52.194;20.520;2022-09-09T05:02:39;100238.50;;;21.30;56.51
35248;BME280;21380;52.194;20.520;2022-09-09T05:05:07;100245.47;;;21.31;56.20
35248;BME280;21380;52.194;20.520;2022-09-09T05:07:33;100236.75;;;21.26;56.34
35248;BME280;21380;52.194;20.520;2022-09-09T05:09:59;100252.44;;;21.32;56.42
35248;BME280;21380;52.194;20.520;2022-09-09T05:12:25;100246.34;;;21.31;56.55
35248;BME280;21380;52.194;20.520;2022-09-09T05:14:51;100243.75;;;21.27;56.47
35248;BME280;21380;52.194;20.520;2022-09-09T05:17:18;100250.72;;;21.31;56.58
35248;BME280;21380;52.194;20.520;2022-09-09T05:19:44;100250.72;;;21.31;56.68
35248;BME280;21380;52.194;20.520;2022-09-09T05:22:10;100248.09;;;21.29;56.66
35248;BME280;21380;52.194;20.520;2022-09-09T05:24:39;100256.31;;;20.49;62.50
35248;BME280;21380;52.194;20.520;2022-09-09T05:27:05;100251.06;;;19.14;68.55
35248;BME280;21380;52.194;20.520;2022-09-09T05:29:32;100244.19;;;20.01;64.27
35248;BME280;21380;52.194;20.520;2022-09-09T05:32:01;100252.00;;;20.32;62.05
35248;BME280;21380;52.194;20.520;2022-09-09T05:34:27;100253.69;;;20.49;60.96
35248;BME280;21380;52.194;20.520;2022-09-09T05:36:53;100239.69;;;20.56;60.45
35248;BME280;21380;52.194;20.520;2022-09-09T05:39:19;100253.66;;;19.06;69.85
35248;BME280;21380;52.194;20.520;2022-09-09T05:41:45;100251.69;;;18.51;73.11
35248;BME280;21380;52.194;20.520;2022-09-09T05:44:11;100253.72;;;19.16;68.85
35248;BME280;21380;52.194;20.520;2022-09-09T05:46:37;100255.50;;;19.52;66.54
35248;BME280;21380;52.194;20.520;2022-09-09T05:49:03;100249.44;;;19.72;65.08
35248;BME280;21380;52.194;20.520;2022-09-09T05:51:31;100257.28;;;19.90;63.80
35248;BME280;21380;52.194;20.520;2022-09-09T05:53:57;100257.28;;;20.01;62.79
35248;BME280;21380;52.194;20.520;2022-09-09T05:56:28;100257.25;;;20.09;61.98
35248;BME280;21380;52.194;20.520;2022-09-09T05:58:55;100268.59;;;20.20;61.50
35248;BME280;21380;52.194;20.520;2022-09-09T06:03:49;100265.97;;;20.33;60.88
35248;BME280;21380;52.194;20.520;2022-09-09T06:06:24;100264.19;;;20.38;60.85
35248;BME280;21380;52.194;20.520;2022-09-09T06:08:53;100267.69;;;20.40;60.55
35248;BME280;21380;52.194;20.520;2022-09-09T06:11:24;100263.31;;;20.44;60.26
35248;BME280;21380;52.194;20.520;2022-09-09T06:13:50;100272.91;;;20.48;60.65
35248;BME280;21380;52.194;20.520;2022-09-09T06:16:22;100269.41;;;20.50;60.61
35248;BME280;21380;52.194;20.520;2022-09-09T06:18:49;100266.81;;;20.46;60.79
35248;BME280;21380;52.194;20.520;2022-09-09T06:21:27;100279.00;;;20.56;60.92
35248;BME280;21380;52.194;20.520;2022-09-09T06:23:53;100285.09;;;20.58;60.88
35248;BME280;21380;52.194;20.520;2022-09-09T06:26:28;100282.50;;;20.60;60.89
35248;BME280;21380;52.194;20.520;2022-09-09T06:28:56;100285.97;;;20.62;60.85
35248;BME280;21380;52.194;20.520;2022-09-09T06:31:27;100283.38;;;20.63;60.94
35248;BME280;21380;52.194;20.520;2022-09-09T06:33:57;100285.97;;;20.65;60.48
35248;BME280;21380;52.194;20.520;2022-09-09T06:36:26;100283.34;;;20.66;60.70
35248;BME280;21380;52.194;20.520;2022-09-09T06:38:53;100275.50;;;20.58;60.65
35248;BME280;21380;52.194;20.520;2022-09-09T06:41:21;100261.53;;;20.60;60.65
35248;BME280;21380;52.194;20.520;2022-09-09T06:43:48;100271.13;;;20.61;60.95
35248;BME280;21380;52.194;20.520;2022-09-09T06:46:22;100281.59;;;20.70;60.96
35248;BME280;21380;52.194;20.520;2022-09-09T06:48:49;100284.19;;;20.70;61.01
35248;BME280;21380;52.194;20.520;2022-09-09T06:51:23;100288.59;;;20.71;61.03
35248;BME280;21380;52.194;20.520;2022-09-09T06:53:51;100276.38;;;20.64;60.96
35248;BME280;21380;52.194;20.520;2022-09-09T06:56:22;100292.09;;;20.75;61.13
35248;BME280;21380;52.194;20.520;2022-09-09T06:58:52;100283.34;;;20.74;61.14
35248;BME280;21380;52.194;20.520;2022-09-09T07:01:21;100278.97;;;20.70;61.12
35248;BME280;21380;52.194;20.520;2022-09-09T07:03:50;100274.59;;;20.69;60.83
35248;BME280;21380;52.194;20.520;2022-09-09T07:06:19;100289.47;;;20.76;60.74
35248;BME280;21380;52.194;20.520;2022-09-09T07:08:50;100299.97;;;20.75;60.61
35248;BME280;21380;52.194;20.520;2022-09-09T07:11:16;100295.53;;;20.78;60.56
35248;BME280;21380;52.194;20.520;2022-09-09T07:13:42;100303.41;;;20.78;60.39
35248;BME280;21380;52.194;20.520;2022-09-09T07:16:13;100304.31;;;20.79;60.37
35248;BME280;21380;52.194;20.520;2022-09-09T07:18:41;100309.53;;;20.80;60.16
35248;BME280;21380;52.194;20.520;2022-09-09T07:21:09;100305.16;;;20.79;60.24
35248;BME280;21380;52.194;20.520;2022-09-09T07:23:35;100293.81;;;20.74;60.15
35248;BME280;21380;52.194;20.520;2022-09-09T07:26:02;100308.69;;;20.80;60.17
35248;BME280;21380;52.194;20.520;2022-09-09T07:28:28;100314.78;;;20.80;60.34
35248;BME280;21380;52.194;20.520;2022-09-09T07:30:58;100313.03;;;20.81;60.18
35248;BME280;21380;52.194;20.520;2022-09-09T07:33:25;100292.94;;;20.69;60.00
35248;BME280;21380;52.194;20.520;2022-09-09T07:35:52;100308.66;;;20.81;59.99
35248;BME280;21380;52.194;20.520;2022-09-09T07:38:19;100313.91;;;20.80;60.20
35248;BME280;21380;52.194;20.520;2022-09-09T07:40:46;100306.06;;;20.75;59.91
35248;BME280;21380;52.194;20.520;2022-09-09T07:43:12;100298.19;;;20.69;59.73
35248;BME280;21380;52.194;20.520;2022-09-09T07:45:38;100324.38;;;20.83;60.16
35248;BME280;21380;52.194;20.520;2022-09-09T07:48:06;100326.13;;;20.79;60.38
35248;BME280;21380;52.194;20.520;2022-09-09T07:50:31;100339.22;;;20.84;59.86
35248;BME280;21380;52.194;20.520;2022-09-09T07:52:58;100334.88;;;20.78;59.91
35248;BME280;21380;52.194;20.520;2022-09-09T07:55:25;100338.38;;;20.85;59.90
35248;BME280;21380;52.194;20.520;2022-09-09T07:57:55;100337.47;;;20.84;60.04
35248;BME280;21380;52.194;20.520;2022-09-09T08:00:21;100342.72;;;20.83;59.78
35248;BME280;21380;52.194;20.520;2022-09-09T08:02:48;100346.22;;;20.85;59.84
35248;BME280;21380;52.194;20.520;2022-09-09T08:05:14;100341.88;;;20.82;59.91
35248;BME280;21380;52.194;20.520;2022-09-09T08:07:40;100358.47;;;20.83;59.72
35248;BME280;21380;52.194;20.520;2022-09-09T08:10:07;100354.94;;;20.85;59.73
35248;BME280;21380;52.194;20.520;2022-09-09T08:12:32;100353.22;;;20.86;59.72
35248;BME280;21380;52.194;20.520;2022-09-09T08:14:58;100352.34;;;20.84;59.53
35248;BME280;21380;52.194;20.520;2022-09-09T08:17:24;100354.94;;;20.87;59.76
35248;BME280;21380;52.194;20.520;2022-09-09T08:19:50;100349.69;;;20.87;59.60
35248;BME280;21380;52.194;20.520;2022-09-09T08:22:16;100337.50;;;20.75;59.64
35248;BME280;21380;52.194;20.520;2022-09-09T08:24:42;100342.75;;;20.75;59.67
35248;BME280;21380;52.194;20.520;2022-09-09T08:27:08;100352.31;;;20.87;59.66
35248;BME280;21380;52.194;20.520;2022-09-09T08:29:35;100356.72;;;20.83;59.54
35248;BME280;21380;52.194;20.520;2022-09-09T08:32:03;100342.75;;;20.80;59.56
35248;BME280;21380;52.194;20.520;2022-09-09T08:34:29;100343.63;;;20.76;59.89
35248;BME280;21380;52.194;20.520;2022-09-09T08:36:57;100364.56;;;20.88;59.57
35248;BME280;21380;52.194;20.520;2022-09-09T08:39:23;100362.81;;;20.85;59.58
35248;BME280;21380;52.194;20.520;2022-09-09T08:42:12;100367.19;;;20.88;59.63
35248;BME280;21380;52.194;20.520;2022-09-09T08:45:06;100368.06;;;20.88;59.65
35248;BME280;21380;52.194;20.520;2022-09-09T08:50:43;100361.97;;;20.89;59.50
35248;BME280;21380;52.194;20.520;2022-09-09T08:53:32;100367.19;;;20.89;59.74
35248;BME280;21380;52.194;20.520;2022-09-09T08:56:09;100368.94;;;20.89;59.57
35248;BME280;21380;52.194;20.520;2022-09-09T08:58:48;100367.19;;;20.89;59.56
35248;BME280;21380;52.194;20.520;2022-09-09T09:09:46;100384.66;;;20.89;59.57
35248;BME280;21380;52.194;20.520;2022-09-09T09:12:20;100369.84;;;20.77;59.58
35248;BME280;21380;52.194;20.520;2022-09-09T09:14:48;100382.94;;;20.82;59.79
35248;BME280;21380;52.194;20.520;2022-09-09T09:17:17;100392.50;;;20.90;60.02
35248;BME280;21380;52.194;20.520;2022-09-09T09:19:46;100359.34;;;20.74;60.13
35248;BME280;21380;52.194;20.520;2022-09-09T09:25:15;100380.28;;;20.93;59.85
35248;BME280;21380;52.194;20.520;2022-09-09T09:30:31;100384.66;;;20.94;59.68
35248;BME280;21380;52.194;20.520;2022-09-09T09:35:50;100383.81;;;20.88;60.46
35248;BME280;21380;52.194;20.520;2022-09-09T09:38:20;100385.50;;;20.94;59.97
35248;BME280;21380;52.194;20.520;2022-09-09T09:40:50;100383.78;;;20.95;60.22
35248;BME280;21380;52.194;20.520;2022-09-09T09:43:23;100384.66;;;20.95;60.12
35248;BME280;21380;52.194;20.520;2022-09-09T09:45:50;100385.50;;;20.96;60.02
35248;BME280;21380;52.194;20.520;2022-09-09T09:48:16;100382.00;;;20.97;61.50
35248;BME280;21380;52.194;20.520;2022-09-09T09:50:57;100382.94;;;20.89;60.67
35248;BME280;21380;52.194;20.520;2022-09-09T09:53:31;100396.88;;;20.98;60.51
35248;BME280;21380;52.194;20.520;2022-09-09T09:56:00;100388.13;;;20.96;61.18
35248;BME280;21380;52.194;20.520;2022-09-09T09:58:30;100388.13;;;20.94;60.54
35248;BME280;21380;52.194;20.520;2022-09-09T10:00:57;100391.63;;;20.98;60.61
35248;BME280;21380;52.194;20.520;2022-09-09T10:03:28;100401.22;;;21.00;60.75
35248;BME280;21380;52.194;20.520;2022-09-09T10:05:55;100398.63;;;20.97;61.39
35248;BME280;21380;52.194;20.520;2022-09-09T10:08:23;100399.50;;;20.98;60.35
35248;BME280;21380;52.194;20.520;2022-09-09T10:19:36;100409.09;;;21.00;60.55
35248;BME280;21380;52.194;20.520;2022-09-09T10:22:24;100421.34;;;21.01;60.59
35248;BME280;21380;52.194;20.520;2022-09-09T10:27:59;100429.22;;;21.00;60.59
35248;BME280;21380;52.194;20.520;2022-09-09T10:33:26;100431.84;;;21.01;60.75
35248;BME280;21380;52.194;20.520;2022-09-09T10:44:56;100437.06;;;21.01;60.73
35248;BME280;21380;52.194;20.520;2022-09-09T10:50:08;100444.94;;;21.01;60.65
35248;BME280;21380;52.194;20.520;2022-09-09T10:52:55;100443.19;;;20.99;60.64
35248;BME280;21380;52.194;20.520;2022-09-09T10:56:06;100455.41;;;21.03;60.84
35248;BME280;21380;52.194;20.520;2022-09-09T10:58:33;100447.56;;;21.01;60.81
35248;BME280;21380;52.194;20.520;2022-09-09T11:01:09;100451.06;;;21.00;60.97
35248;BME280;21380;52.194;20.520;2022-09-09T11:03:39;100444.94;;;21.03;60.74
35248;BME280;21380;52.194;20.520;2022-09-09T11:06:15;100442.34;;;21.00;60.78
35248;BME280;21380;52.194;20.520;2022-09-09T11:08:42;100445.81;;;21.00;60.79
35248;BME280;21380;52.194;20.520;2022-09-09T11:11:10;100443.22;;;20.97;60.70
35248;BME280;21380;52.194;20.520;2022-09-09T11:17:03;100461.56;;;21.00;60.47
35248;BME280;21380;52.194;20.520;2022-09-09T11:19:31;100460.66;;;21.03;60.78
35248;BME280;21380;52.194;20.520;2022-09-09T11:25:16;100453.66;;;21.02;60.80
35248;BME280;21380;52.194;20.520;2022-09-09T11:28:11;100460.66;;;21.03;60.71
35248;BME280;21380;52.194;20.520;2022-09-09T11:39:28;100474.66;;;21.05;61.39
35248;BME280;21380;52.194;20.520;2022-09-09T11:41:48;100456.31;;;20.93;61.29
35248;BME280;21380;52.194;20.520;2022-09-09T11:44:21;100476.41;;;21.00;61.33
35248;BME280;21380;52.194;20.520;2022-09-09T11:46:52;100479.91;;;21.05;60.85
35248;BME280;21380;52.194;20.520;2022-09-09T11:51:52;100465.91;;;20.97;61.07
35248;BME280;21380;52.194;20.520;2022-09-09T11:54:32;100471.16;;;21.01;60.70
35248;BME280;21380;52.194;20.520;2022-09-09T11:57:02;100470.28;;;21.04;60.76
35248;BME280;21380;52.194;20.520;2022-09-09T11:59:31;100459.81;;;20.96;60.79
35248;BME280;21380;52.194;20.520;2022-09-09T12:02:02;100462.41;;;21.04;61.13
35248;BME280;21380;52.194;20.520;2022-09-09T12:04:40;100448.44;;;20.96;60.93
35248;BME280;21380;52.194;20.520;2022-09-09T12:12:38;100457.19;;;20.98;61.31
35248;BME280;21380;52.194;20.520;2022-09-09T12:17:52;100470.28;;;21.05;61.24
35248;BME280;21380;52.194;20.520;2022-09-09T12:20:36;100452.81;;;20.90;61.23
35248;BME280;21380;52.194;20.520;2022-09-09T12:33:48;100480.78;;;21.07;61.51
35248;BME280;21380;52.194;20.520;2022-09-09T12:36:18;100463.31;;;21.06;61.33
35248;BME280;21380;52.194;20.520;2022-09-09T12:38:50;100455.41;;;21.03;61.35
35248;BME280;21380;52.194;20.520;2022-09-09T12:41:25;100469.41;;;21.06;61.43
35248;BME280;21380;52.194;20.520;2022-09-09T12:44:09;100458.03;;;21.04;61.48
35248;BME280;21380;52.194;20.520;2022-09-09T12:46:41;100465.06;;;21.07;61.67
35248;BME280;21380;52.194;20.520;2022-09-09T12:49:35;100461.53;;;21.08;61.66
35248;BME280;21380;52.194;20.520;2022-09-09T12:54:45;100449.34;;;20.88;66.84
35248;BME280;21380;52.194;20.520;2022-09-09T12:57:17;100444.06;;;21.04;70.98
35248;BME280;21380;52.194;20.520;2022-09-09T12:59:44;100445.78;;;21.17;72.53
35248;BME280;21380;52.194;20.520;2022-09-09T13:02:22;100448.34;;;21.34;72.51
35248;BME280;21380;52.194;20.520;2022-09-09T13:04:49;100429.06;;;21.42;72.20
35248;BME280;21380;52.194;20.520;2022-09-09T13:07:17;100440.41;;;21.58;71.75
35248;BME280;21380;52.194;20.520;2022-09-09T13:09:45;100437.72;;;21.70;71.28
35248;BME280;21380;52.194;20.520;2022-09-09T13:12:21;100434.19;;;21.79;70.60
35248;BME280;21380;52.194;20.520;2022-09-09T13:14:50;100441.09;;;21.91;70.14
35248;BME280;21380;52.194;20.520;2022-09-09T13:17:21;100440.19;;;21.98;69.70
35248;BME280;21380;52.194;20.520;2022-09-09T13:19:48;100441.91;;;22.05;69.45
35248;BME280;21380;52.194;20.520;2022-09-09T13:22:32;100437.50;;;22.10;69.26
35248;BME280;21380;52.194;20.520;2022-09-09T13:25:17;100440.94;;;22.18;68.62
35248;BME280;21380;52.194;20.520;2022-09-09T13:30:27;100444.34;;;22.28;68.40
35248;BME280;21380;52.194;20.520;2022-09-09T13:33:06;100439.06;;;22.33;68.21
35248;BME280;21380;52.194;20.520;2022-09-09T13:35:58;100430.31;;;22.31;67.97
35248;BME280;21380;52.194;20.520;2022-09-09T13:38:27;100437.31;;;22.38;67.33
35248;BME280;21380;52.194;20.520;2022-09-09T13:41:03;100439.91;;;22.43;67.39
35248;BME280;21380;52.194;20.520;2022-09-09T13:43:38;100444.25;;;22.47;67.58
35248;BME280;21380;52.194;20.520;2022-09-09T13:46:39;100439.84;;;22.49;67.12
35248;BME280;21380;52.194;20.520;2022-09-09T13:51:37;100451.22;;;22.53;67.00
35248;BME280;21380;52.194;20.520;2022-09-09T13:54:04;100446.81;;;22.56;66.48
35248;BME280;21380;52.194;20.520;2022-09-09T13:56:36;100445.91;;;22.59;66.61
35248;BME280;21380;52.194;20.520;2022-09-09T13:59:04;100438.00;;;22.57;66.38
35248;BME280;21380;52.194;20.520;2022-09-09T14:01:30;100435.38;;;22.57;66.23
35248;BME280;21380;52.194;20.520;2022-09-09T14:03:57;100441.50;;;22.62;66.22
35248;BME280;21380;52.194;20.520;2022-09-09T14:06:23;100445.84;;;22.63;66.22
35248;BME280;21380;52.194;20.520;2022-09-09T14:08:50;100451.13;;;22.65;65.95
35248;BME280;21380;52.194;20.520;2022-09-09T14:11:17;100452.84;;;22.66;65.98
35248;BME280;21380;52.194;20.520;2022-09-09T14:13:44;100450.22;;;22.67;65.63
35248;BME280;21380;52.194;20.520;2022-09-09T14:16:10;100444.06;;;22.69;65.89
35248;BME280;21380;52.194;20.520;2022-09-09T14:18:36;100443.22;;;22.65;65.81
35248;BME280;21380;52.194;20.520;2022-09-09T14:21:03;100438.81;;;22.67;65.76
35248;BME280;21380;52.194;20.520;2022-09-09T14:23:29;100430.94;;;22.69;65.56
35248;BME280;21380;52.194;20.520;2022-09-09T14:25:56;100444.00;;;22.73;65.56
35248;BME280;21380;52.194;20.520;2022-09-09T14:28:22;100427.38;;;22.73;65.34
35248;BME280;21380;52.194;20.520;2022-09-09T14:30:48;100437.03;;;22.69;65.60
35248;BME280;21380;52.194;20.520;2022-09-09T14:33:15;100431.78;;;22.69;65.46
35248;BME280;21380;52.194;20.520;2022-09-09T14:35:42;100456.25;;;22.77;65.36
35248;BME280;21380;52.194;20.520;2022-09-09T14:38:08;100450.13;;;22.77;65.40
35248;BME280;21380;52.194;20.520;2022-09-09T14:40:35;100455.38;;;22.80;65.04
35248;BME280;21380;52.194;20.520;2022-09-09T14:43:02;100460.63;;;22.80;64.89
35248;BME280;21380;52.194;20.520;2022-09-09T14:45:28;100459.72;;;22.81;65.02
35248;BME280;21380;52.194;20.520;2022-09-09T14:47:54;100453.56;;;22.82;65.19
35248;BME280;21380;52.194;20.520;2022-09-09T14:50:22;100450.06;;;22.83;64.70
35248;BME280;21380;52.194;20.520;2022-09-09T14:52:48;100446.56;;;22.82;64.78
35248;BME280;21380;52.194;20.520;2022-09-09T14:55:14;100457.97;;;22.81;64.90
35248;BME280;21380;52.194;20.520;2022-09-09T14:57:42;100461.44;;;22.83;65.03
35248;BME280;21380;52.194;20.520;2022-09-09T15:00:10;100463.19;;;22.84;65.18
35248;BME280;21380;52.194;20.520;2022-09-09T15:02:36;100457.06;;;22.84;64.78
35248;BME280;21380;52.194;20.520;2022-09-09T15:05:02;100445.66;;;22.83;64.86
35248;BME280;21380;52.194;20.520;2022-09-09T15:07:29;100457.06;;;22.84;64.86
35248;BME280;21380;52.194;20.520;2022-09-09T15:09:57;100469.31;;;22.83;64.52